X  Sluiten METAR luchtvaart weer gegevens      EBBR Brussels Airport
Temperatuur
13°C Temperatuur
7°C Dauwpunt
67% Vochtigheid



Wind
10 KM/U
6 MPH
3 M/S
5 KTS



140°
ZO
Huidig weer

Helder Helder
Luchtdruk 1006.92 (hPa) - 29.73 (inHg)
Zicht 6.2 (mijl) - 10 (km)
Vliegveld
Vliegveld code EBBR

Locatie : Brussels Airport
Afstand: 14 (km)

Metar:
EBBR 130750Z 14005KT CAVOK 13/07 Q1007 NOSIG

Tijd: 2021-05-13 09:50 CEST